sensor_id;sensor_type;location;lat;lon;timestamp;temperature;humidity
38020;DHT22;23829;51.350;17.286;2023-06-10T00:00:42;29.40;43.60
38020;DHT22;23829;51.350;17.286;2023-06-10T00:03:28;29.50;43.30
38020;DHT22;23829;51.350;17.286;2023-06-10T00:05:55;29.40;43.50
38020;DHT22;23829;51.350;17.286;2023-06-10T00:08:21;29.30;43.90
38020;DHT22;23829;51.350;17.286;2023-06-10T00:10:48;29.20;44.10
38020;DHT22;23829;51.350;17.286;2023-06-10T00:13:14;29.20;44.50
38020;DHT22;23829;51.350;17.286;2023-06-10T00:15:42;29.20;44.50
38020;DHT22;23829;51.350;17.286;2023-06-10T00:18:09;29.40;44.20
38020;DHT22;23829;51.350;17.286;2023-06-10T00:20:36;29.40;44.30
38020;DHT22;23829;51.350;17.286;2023-06-10T00:23:04;29.30;44.50
38020;DHT22;23829;51.350;17.286;2023-06-10T00:25:32;29.40;44.70
38020;DHT22;23829;51.350;17.286;2023-06-10T00:27:59;29.50;44.50
38020;DHT22;23829;51.350;17.286;2023-06-10T00:30:28;29.50;44.40
38020;DHT22;23829;51.350;17.286;2023-06-10T00:32:54;29.50;44.50
38020;DHT22;23829;51.350;17.286;2023-06-10T00:35:21;29.50;44.70
38020;DHT22;23829;51.350;17.286;2023-06-10T00:37:48;29.60;44.70
38020;DHT22;23829;51.350;17.286;2023-06-10T00:40:15;29.70;44.50
38020;DHT22;23829;51.350;17.286;2023-06-10T00:42:42;29.80;44.40
38020;DHT22;23829;51.350;17.286;2023-06-10T00:45:08;29.70;44.70
38020;DHT22;23829;51.350;17.286;2023-06-10T00:47:36;29.70;44.60
38020;DHT22;23829;51.350;17.286;2023-06-10T00:50:03;29.80;44.50
38020;DHT22;23829;51.350;17.286;2023-06-10T00:52:30;29.80;44.50
38020;DHT22;23829;51.350;17.286;2023-06-10T00:54:57;29.70;44.90
38020;DHT22;23829;51.350;17.286;2023-06-10T00:57:25;29.80;44.60
38020;DHT22;23829;51.350;17.286;2023-06-10T00:59:52;29.90;44.40
38020;DHT22;23829;51.350;17.286;2023-06-10T01:02:19;29.90;44.50
38020;DHT22;23829;51.350;17.286;2023-06-10T01:04:45;29.80;44.70
38020;DHT22;23829;51.350;17.286;2023-06-10T01:07:59;29.80;44.90
38020;DHT22;23829;51.350;17.286;2023-06-10T01:10:05;29.70;44.80
38020;DHT22;23829;51.350;17.286;2023-06-10T01:12:41;29.80;44.70
38020;DHT22;23829;51.350;17.286;2023-06-10T01:15:08;29.80;44.60
38020;DHT22;23829;51.350;17.286;2023-06-10T01:20:20;29.70;44.70
38020;DHT22;23829;51.350;17.286;2023-06-10T01:22:47;29.80;44.80
38020;DHT22;23829;51.350;17.286;2023-06-10T01:25:13;29.80;44.40
38020;DHT22;23829;51.350;17.286;2023-06-10T01:27:40;29.80;44.50
38020;DHT22;23829;51.350;17.286;2023-06-10T01:30:15;29.80;44.40
38020;DHT22;23829;51.350;17.286;2023-06-10T01:32:45;29.80;44.40
38020;DHT22;23829;51.350;17.286;2023-06-10T01:35:15;29.80;44.40
38020;DHT22;23829;51.350;17.286;2023-06-10T01:37:45;29.70;44.60
38020;DHT22;23829;51.350;17.286;2023-06-10T01:40:12;29.70;44.70
38020;DHT22;23829;51.350;17.286;2023-06-10T01:42:39;29.70;44.80
38020;DHT22;23829;51.350;17.286;2023-06-10T01:45:06;29.70;45.00
38020;DHT22;23829;51.350;17.286;2023-06-10T01:47:33;29.70;45.00
38020;DHT22;23829;51.350;17.286;2023-06-10T01:49:59;29.70;45.00
38020;DHT22;23829;51.350;17.286;2023-06-10T01:52:28;29.70;45.10
38020;DHT22;23829;51.350;17.286;2023-06-10T01:54:54;29.70;45.40
38020;DHT22;23829;51.350;17.286;2023-06-10T01:57:21;29.70;45.30
38020;DHT22;23829;51.350;17.286;2023-06-10T01:59:47;29.70;45.50
38020;DHT22;23829;51.350;17.286;2023-06-10T02:02:15;29.70;45.50
38020;DHT22;23829;51.350;17.286;2023-06-10T02:04:41;29.70;45.50
38020;DHT22;23829;51.350;17.286;2023-06-10T02:07:08;29.80;45.60
38020;DHT22;23829;51.350;17.286;2023-06-10T02:09:34;29.80;45.50
38020;DHT22;23829;51.350;17.286;2023-06-10T02:12:03;29.80;45.60
38020;DHT22;23829;51.350;17.286;2023-06-10T02:14:32;29.80;45.80
38020;DHT22;23829;51.350;17.286;2023-06-10T02:16:59;29.80;46.10
38020;DHT22;23829;51.350;17.286;2023-06-10T02:19:26;29.80;45.90
38020;DHT22;23829;51.350;17.286;2023-06-10T02:21:54;29.80;46.10
38020;DHT22;23829;51.350;17.286;2023-06-10T02:24:20;29.80;46.10
38020;DHT22;23829;51.350;17.286;2023-06-10T02:26:47;29.80;46.10
38020;DHT22;23829;51.350;17.286;2023-06-10T02:29:14;29.80;46.20
38020;DHT22;23829;51.350;17.286;2023-06-10T02:31:40;29.80;46.20
38020;DHT22;23829;51.350;17.286;2023-06-10T02:34:08;29.90;46.30
38020;DHT22;23829;51.350;17.286;2023-06-10T02:36:35;29.80;46.20
38020;DHT22;23829;51.350;17.286;2023-06-10T02:39:03;29.90;46.30
38020;DHT22;23829;51.350;17.286;2023-06-10T02:41:31;29.90;46.30
38020;DHT22;23829;51.350;17.286;2023-06-10T02:43:58;30.10;45.90
38020;DHT22;23829;51.350;17.286;2023-06-10T02:46:25;30.10;46.10
38020;DHT22;23829;51.350;17.286;2023-06-10T02:48:53;30.10;46.10
38020;DHT22;23829;51.350;17.286;2023-06-10T02:51:22;30.00;46.20
38020;DHT22;23829;51.350;17.286;2023-06-10T02:53:53;30.00;46.20
38020;DHT22;23829;51.350;17.286;2023-06-10T02:56:20;30.00;46.10
38020;DHT22;23829;51.350;17.286;2023-06-10T02:58:48;29.90;46.00
38020;DHT22;23829;51.350;17.286;2023-06-10T03:01:17;30.00;46.10
38020;DHT22;23829;51.350;17.286;2023-06-10T03:04:00;29.90;46.20
38020;DHT22;23829;51.350;17.286;2023-06-10T03:06:27;29.90;45.90
38020;DHT22;23829;51.350;17.286;2023-06-10T03:09:00;29.90;46.10
38020;DHT22;23829;51.350;17.286;2023-06-10T03:11:27;29.90;45.90
38020;DHT22;23829;51.350;17.286;2023-06-10T03:13:53;29.90;46.10
38020;DHT22;23829;51.350;17.286;2023-06-10T03:16:21;29.90;46.20
38020;DHT22;23829;51.350;17.286;2023-06-10T03:18:49;30.10;45.90
38020;DHT22;23829;51.350;17.286;2023-06-10T03:21:16;30.20;45.70
38020;DHT22;23829;51.350;17.286;2023-06-10T03:23:42;30.10;45.80
38020;DHT22;23829;51.350;17.286;2023-06-10T03:26:09;30.20;45.90
38020;DHT22;23829;51.350;17.286;2023-06-10T03:28:39;30.10;45.90
38020;DHT22;23829;51.350;17.286;2023-06-10T03:31:06;30.10;46.00
38020;DHT22;23829;51.350;17.286;2023-06-10T03:33:32;30.00;46.20
38020;DHT22;23829;51.350;17.286;2023-06-10T03:35:59;30.10;46.10
38020;DHT22;23829;51.350;17.286;2023-06-10T03:38:25;30.20;45.60
38020;DHT22;23829;51.350;17.286;2023-06-10T03:40:53;30.10;45.70
38020;DHT22;23829;51.350;17.286;2023-06-10T03:43:19;30.00;45.80
38020;DHT22;23829;51.350;17.286;2023-06-10T03:45:47;30.10;45.70
38020;DHT22;23829;51.350;17.286;2023-06-10T03:48:14;29.70;46.30
38020;DHT22;23829;51.350;17.286;2023-06-10T03:50:48;29.60;46.60
38020;DHT22;23829;51.350;17.286;2023-06-10T03:53:17;29.80;46.60
38020;DHT22;23829;51.350;17.286;2023-06-10T03:55:44;29.80;46.30
38020;DHT22;23829;51.350;17.286;2023-06-10T03:58:11;29.90;46.30
38020;DHT22;23829;51.350;17.286;2023-06-10T04:00:42;29.70;46.40
38020;DHT22;23829;51.350;17.286;2023-06-10T04:03:09;29.70;46.80
38020;DHT22;23829;51.350;17.286;2023-06-10T04:05:43;29.80;46.80
38020;DHT22;23829;51.350;17.286;2023-06-10T04:08:09;29.80;46.70
38020;DHT22;23829;51.350;17.286;2023-06-10T04:10:36;29.80;46.60
38020;DHT22;23829;51.350;17.286;2023-06-10T04:13:02;29.90;46.70
38020;DHT22;23829;51.350;17.286;2023-06-10T04:15:34;30.00;46.20
38020;DHT22;23829;51.350;17.286;2023-06-10T04:18:05;29.90;46.30
38020;DHT22;23829;51.350;17.286;2023-06-10T04:20:32;30.00;46.30
38020;DHT22;23829;51.350;17.286;2023-06-10T04:22:58;30.20;45.70
38020;DHT22;23829;51.350;17.286;2023-06-10T04:25:27;30.30;45.60
38020;DHT22;23829;51.350;17.286;2023-06-10T04:27:55;30.10;45.90
38020;DHT22;23829;51.350;17.286;2023-06-10T04:30:22;30.20;46.10
38020;DHT22;23829;51.350;17.286;2023-06-10T04:32:49;30.40;45.40
38020;DHT22;23829;51.350;17.286;2023-06-10T04:35:17;30.40;45.40
38020;DHT22;23829;51.350;17.286;2023-06-10T04:37:45;30.40;45.40
38020;DHT22;23829;51.350;17.286;2023-06-10T04:40:12;30.40;45.60
38020;DHT22;23829;51.350;17.286;2023-06-10T04:42:40;30.30;45.60
38020;DHT22;23829;51.350;17.286;2023-06-10T04:45:07;30.30;45.80
38020;DHT22;23829;51.350;17.286;2023-06-10T04:47:34;30.40;46.10
38020;DHT22;23829;51.350;17.286;2023-06-10T04:50:02;30.50;45.90
38020;DHT22;23829;51.350;17.286;2023-06-10T04:52:29;30.60;45.50
38020;DHT22;23829;51.350;17.286;2023-06-10T04:54:57;30.50;45.70
38020;DHT22;23829;51.350;17.286;2023-06-10T04:57:24;30.40;45.90
38020;DHT22;23829;51.350;17.286;2023-06-10T04:59:51;30.50;46.10
38020;DHT22;23829;51.350;17.286;2023-06-10T05:02:18;30.40;46.10
38020;DHT22;23829;51.350;17.286;2023-06-10T05:04:44;30.50;45.90
38020;DHT22;23829;51.350;17.286;2023-06-10T05:07:11;30.50;46.10
38020;DHT22;23829;51.350;17.286;2023-06-10T05:09:38;30.40;46.30
38020;DHT22;23829;51.350;17.286;2023-06-10T05:12:05;30.00;47.10
38020;DHT22;23829;51.350;17.286;2023-06-10T05:14:32;29.90;47.40
38020;DHT22;23829;51.350;17.286;2023-06-10T05:16:58;30.20;47.30
38020;DHT22;23829;51.350;17.286;2023-06-10T05:19:25;30.70;46.60
38020;DHT22;23829;51.350;17.286;2023-06-10T05:21:51;31.00;45.70
38020;DHT22;23829;51.350;17.286;2023-06-10T05:24:18;31.00;45.80
38020;DHT22;23829;51.350;17.286;2023-06-10T05:26:44;31.10;45.70
38020;DHT22;23829;51.350;17.286;2023-06-10T05:29:11;31.50;45.70
38020;DHT22;23829;51.350;17.286;2023-06-10T05:31:37;31.20;45.90
38020;DHT22;23829;51.350;17.286;2023-06-10T05:34:04;31.00;46.70
38020;DHT22;23829;51.350;17.286;2023-06-10T05:36:30;30.80;46.80
38020;DHT22;23829;51.350;17.286;2023-06-10T05:38:56;31.00;46.70
38020;DHT22;23829;51.350;17.286;2023-06-10T05:41:23;31.20;46.20
38020;DHT22;23829;51.350;17.286;2023-06-10T05:43:49;31.00;46.80
38020;DHT22;23829;51.350;17.286;2023-06-10T05:46:16;31.20;46.30
38020;DHT22;23829;51.350;17.286;2023-06-10T05:48:42;31.10;46.40
38020;DHT22;23829;51.350;17.286;2023-06-10T05:51:08;31.10;46.60
38020;DHT22;23829;51.350;17.286;2023-06-10T05:53:36;31.20;46.70
38020;DHT22;23829;51.350;17.286;2023-06-10T05:56:03;31.40;46.10
38020;DHT22;23829;51.350;17.286;2023-06-10T05:58:29;31.20;46.50
38020;DHT22;23829;51.350;17.286;2023-06-10T06:00:56;31.10;46.80
38020;DHT22;23829;51.350;17.286;2023-06-10T06:03:22;31.00;46.70
38020;DHT22;23829;51.350;17.286;2023-06-10T06:05:48;31.10;46.90
38020;DHT22;23829;51.350;17.286;2023-06-10T06:08:15;31.40;46.30
38020;DHT22;23829;51.350;17.286;2023-06-10T06:10:47;31.90;45.30
38020;DHT22;23829;51.350;17.286;2023-06-10T06:13:16;32.40;44.50
38020;DHT22;23829;51.350;17.286;2023-06-10T06:15:43;32.10;44.90
38020;DHT22;23829;51.350;17.286;2023-06-10T06:18:09;32.10;45.30
38020;DHT22;23829;51.350;17.286;2023-06-10T06:20:36;32.40;45.10
38020;DHT22;23829;51.350;17.286;2023-06-10T06:23:02;32.20;45.00
38020;DHT22;23829;51.350;17.286;2023-06-10T06:25:29;32.00;45.20
38020;DHT22;23829;51.350;17.286;2023-06-10T06:27:55;32.00;45.70
38020;DHT22;23829;51.350;17.286;2023-06-10T06:30:22;31.80;46.30
38020;DHT22;23829;51.350;17.286;2023-06-10T06:32:48;31.70;46.10
38020;DHT22;23829;51.350;17.286;2023-06-10T06:35:15;31.50;46.60
38020;DHT22;23829;51.350;17.286;2023-06-10T06:37:41;31.40;46.50
38020;DHT22;23829;51.350;17.286;2023-06-10T06:40:18;31.70;46.70
38020;DHT22;23829;51.350;17.286;2023-06-10T06:42:44;31.60;46.60
38020;DHT22;23829;51.350;17.286;2023-06-10T06:45:17;31.80;46.30
38020;DHT22;23829;51.350;17.286;2023-06-10T06:47:43;32.10;46.30
38020;DHT22;23829;51.350;17.286;2023-06-10T06:50:10;32.80;44.70
38020;DHT22;23829;51.350;17.286;2023-06-10T06:52:36;33.00;44.70
38020;DHT22;23829;51.350;17.286;2023-06-10T06:55:03;32.90;44.20
38020;DHT22;23829;51.350;17.286;2023-06-10T06:57:30;32.70;44.60
38020;DHT22;23829;51.350;17.286;2023-06-10T06:59:56;33.10;44.00
38020;DHT22;23829;51.350;17.286;2023-06-10T07:02:24;32.90;44.40
38020;DHT22;23829;51.350;17.286;2023-06-10T07:04:50;32.80;44.30
38020;DHT22;23829;51.350;17.286;2023-06-10T07:07:17;32.80;44.60
38020;DHT22;23829;51.350;17.286;2023-06-10T07:09:43;32.70;44.50
38020;DHT22;23829;51.350;17.286;2023-06-10T07:12:10;32.90;44.10
38020;DHT22;23829;51.350;17.286;2023-06-10T07:14:36;33.10;44.00
38020;DHT22;23829;51.350;17.286;2023-06-10T07:17:03;33.40;43.40
38020;DHT22;23829;51.350;17.286;2023-06-10T07:19:29;33.20;43.70
38020;DHT22;23829;51.350;17.286;2023-06-10T07:21:56;33.40;42.50
38020;DHT22;23829;51.350;17.286;2023-06-10T07:24:22;33.60;42.10
38020;DHT22;23829;51.350;17.286;2023-06-10T07:26:49;33.40;41.80
38020;DHT22;23829;51.350;17.286;2023-06-10T07:29:15;33.70;41.90
38020;DHT22;23829;51.350;17.286;2023-06-10T07:31:42;33.30;42.90
38020;DHT22;23829;51.350;17.286;2023-06-10T07:34:08;33.30;43.50
38020;DHT22;23829;51.350;17.286;2023-06-10T07:36:35;33.40;43.60
38020;DHT22;23829;51.350;17.286;2023-06-10T07:39:02;33.40;42.80
38020;DHT22;23829;51.350;17.286;2023-06-10T07:41:29;34.20;41.90
38020;DHT22;23829;51.350;17.286;2023-06-10T07:43:55;34.20;41.80
38020;DHT22;23829;51.350;17.286;2023-06-10T07:46:23;34.10;41.70
38020;DHT22;23829;51.350;17.286;2023-06-10T07:48:49;33.90;42.30
38020;DHT22;23829;51.350;17.286;2023-06-10T07:51:17;33.80;42.60
38020;DHT22;23829;51.350;17.286;2023-06-10T07:53:43;33.80;42.80
38020;DHT22;23829;51.350;17.286;2023-06-10T07:56:09;33.90;42.60
38020;DHT22;23829;51.350;17.286;2023-06-10T07:58:36;33.70;42.00
38020;DHT22;23829;51.350;17.286;2023-06-10T08:01:02;33.70;42.80
38020;DHT22;23829;51.350;17.286;2023-06-10T08:03:29;33.40;43.50
38020;DHT22;23829;51.350;17.286;2023-06-10T08:05:55;33.40;43.60
38020;DHT22;23829;51.350;17.286;2023-06-10T08:08:21;33.90;43.20
38020;DHT22;23829;51.350;17.286;2023-06-10T08:10:48;33.70;42.90
38020;DHT22;23829;51.350;17.286;2023-06-10T08:13:16;34.00;42.80
38020;DHT22;23829;51.350;17.286;2023-06-10T08:15:43;34.10;43.30
38020;DHT22;23829;51.350;17.286;2023-06-10T08:18:09;34.30;42.30
38020;DHT22;23829;51.350;17.286;2023-06-10T08:20:36;34.20;41.70
38020;DHT22;23829;51.350;17.286;2023-06-10T08:23:02;33.60;42.50
38020;DHT22;23829;51.350;17.286;2023-06-10T08:25:29;33.70;42.00
38020;DHT22;23829;51.350;17.286;2023-06-10T08:27:55;34.10;41.00
38020;DHT22;23829;51.350;17.286;2023-06-10T08:30:23;34.20;41.30
38020;DHT22;23829;51.350;17.286;2023-06-10T08:32:50;34.20;41.80
38020;DHT22;23829;51.350;17.286;2023-06-10T08:35:18;34.00;41.50
38020;DHT22;23829;51.350;17.286;2023-06-10T08:37:44;34.20;41.00
38020;DHT22;23829;51.350;17.286;2023-06-10T08:40:11;34.00;40.00
38020;DHT22;23829;51.350;17.286;2023-06-10T08:42:58;33.90;40.90
38020;DHT22;23829;51.350;17.286;2023-06-10T08:45:30;33.60;41.90
38020;DHT22;23829;51.350;17.286;2023-06-10T08:48:03;33.40;42.60
38020;DHT22;23829;51.350;17.286;2023-06-10T08:50:37;34.20;40.40
38020;DHT22;23829;51.350;17.286;2023-06-10T08:53:06;34.40;40.00
38020;DHT22;23829;51.350;17.286;2023-06-10T08:55:38;34.80;38.50
38020;DHT22;23829;51.350;17.286;2023-06-10T08:58:04;34.60;38.90
38020;DHT22;23829;51.350;17.286;2023-06-10T09:00:32;34.70;38.70
38020;DHT22;23829;51.350;17.286;2023-06-10T09:02:59;34.60;38.30
38020;DHT22;23829;51.350;17.286;2023-06-10T09:05:28;34.80;38.50
38020;DHT22;23829;51.350;17.286;2023-06-10T09:07:58;34.60;38.60
38020;DHT22;23829;51.350;17.286;2023-06-10T09:10:27;34.00;38.80
38020;DHT22;23829;51.350;17.286;2023-06-10T09:12:53;34.60;39.00
38020;DHT22;23829;51.350;17.286;2023-06-10T09:15:20;34.40;38.50
38020;DHT22;23829;51.350;17.286;2023-06-10T09:17:46;34.90;37.20
38020;DHT22;23829;51.350;17.286;2023-06-10T09:20:13;34.80;36.10
38020;DHT22;23829;51.350;17.286;2023-06-10T09:22:41;34.50;36.40
38020;DHT22;23829;51.350;17.286;2023-06-10T09:25:12;34.10;37.80
38020;DHT22;23829;51.350;17.286;2023-06-10T09:27:52;34.10;37.40
38020;DHT22;23829;51.350;17.286;2023-06-10T09:30:30;34.20;37.30
38020;DHT22;23829;51.350;17.286;2023-06-10T09:32:59;34.00;37.40
38020;DHT22;23829;51.350;17.286;2023-06-10T09:35:28;34.30;37.40
38020;DHT22;23829;51.350;17.286;2023-06-10T09:37:57;34.40;37.30
38020;DHT22;23829;51.350;17.286;2023-06-10T09:40:24;34.30;36.60
38020;DHT22;23829;51.350;17.286;2023-06-10T09:42:59;34.00;36.20
38020;DHT22;23829;51.350;17.286;2023-06-10T09:45:30;34.60;35.00
38020;DHT22;23829;51.350;17.286;2023-06-10T09:48:01;34.50;35.00
38020;DHT22;23829;51.350;17.286;2023-06-10T09:50:28;34.00;34.90
38020;DHT22;23829;51.350;17.286;2023-06-10T09:52:58;34.00;34.60
38020;DHT22;23829;51.350;17.286;2023-06-10T09:55:26;34.00;35.10
38020;DHT22;23829;51.350;17.286;2023-06-10T09:57:54;33.90;36.10
38020;DHT22;23829;51.350;17.286;2023-06-10T10:00:22;33.90;34.80
38020;DHT22;23829;51.350;17.286;2023-06-10T10:02:53;33.80;34.50
38020;DHT22;23829;51.350;17.286;2023-06-10T10:05:21;34.50;34.80
38020;DHT22;23829;51.350;17.286;2023-06-10T10:07:48;34.60;34.10
38020;DHT22;23829;51.350;17.286;2023-06-10T10:10:17;34.40;34.40
38020;DHT22;23829;51.350;17.286;2023-06-10T10:12:48;34.80;34.10
38020;DHT22;23829;51.350;17.286;2023-06-10T10:15:17;34.70;33.20
38020;DHT22;23829;51.350;17.286;2023-06-10T10:17:49;34.70;33.70
38020;DHT22;23829;51.350;17.286;2023-06-10T10:20:22;34.90;31.80
38020;DHT22;23829;51.350;17.286;2023-06-10T10:22:51;34.70;31.40
38020;DHT22;23829;51.350;17.286;2023-06-10T10:25:25;34.80;31.30
38020;DHT22;23829;51.350;17.286;2023-06-10T10:28:11;34.90;30.90
38020;DHT22;23829;51.350;17.286;2023-06-10T10:30:40;34.90;31.80
38020;DHT22;23829;51.350;17.286;2023-06-10T10:33:19;35.40;31.30
38020;DHT22;23829;51.350;17.286;2023-06-10T10:35:47;34.80;30.40
38020;DHT22;23829;51.350;17.286;2023-06-10T10:38:14;34.80;30.70
38020;DHT22;23829;51.350;17.286;2023-06-10T10:40:41;34.80;30.60
38020;DHT22;23829;51.350;17.286;2023-06-10T10:43:09;34.80;30.70
38020;DHT22;23829;51.350;17.286;2023-06-10T10:45:36;34.80;31.40
38020;DHT22;23829;51.350;17.286;2023-06-10T10:48:09;35.00;30.70
38020;DHT22;23829;51.350;17.286;2023-06-10T10:50:39;35.40;31.00
38020;DHT22;23829;51.350;17.286;2023-06-10T10:53:06;35.10;30.40
38020;DHT22;23829;51.350;17.286;2023-06-10T10:55:33;35.10;30.20
38020;DHT22;23829;51.350;17.286;2023-06-10T10:58:05;35.30;30.00
38020;DHT22;23829;51.350;17.286;2023-06-10T11:00:37;35.70;29.00
38020;DHT22;23829;51.350;17.286;2023-06-10T11:05:41;35.10;29.50
38020;DHT22;23829;51.350;17.286;2023-06-10T11:08:11;35.40;29.00
38020;DHT22;23829;51.350;17.286;2023-06-10T11:10:40;35.70;28.90
38020;DHT22;23829;51.350;17.286;2023-06-10T11:13:13;35.30;28.90
38020;DHT22;23829;51.350;17.286;2023-06-10T11:15:48;35.40;28.10
38020;DHT22;23829;51.350;17.286;2023-06-10T11:18:38;35.50;27.50
38020;DHT22;23829;51.350;17.286;2023-06-10T11:21:05;34.80;28.10
38020;DHT22;23829;51.350;17.286;2023-06-10T11:26:18;34.80;28.40
38020;DHT22;23829;51.350;17.286;2023-06-10T11:31:21;34.90;27.30
38020;DHT22;23829;51.350;17.286;2023-06-10T11:33:49;35.00;27.20
38020;DHT22;23829;51.350;17.286;2023-06-10T11:36:18;35.20;27.60
38020;DHT22;23829;51.350;17.286;2023-06-10T11:38:44;35.70;26.30
38020;DHT22;23829;51.350;17.286;2023-06-10T11:41:11;35.80;26.40
38020;DHT22;23829;51.350;17.286;2023-06-10T11:43:44;35.60;26.20
38020;DHT22;23829;51.350;17.286;2023-06-10T11:46:12;35.30;26.70
38020;DHT22;23829;51.350;17.286;2023-06-10T11:48:39;35.60;26.80
38020;DHT22;23829;51.350;17.286;2023-06-10T11:51:08;35.40;26.70
38020;DHT22;23829;51.350;17.286;2023-06-10T11:53:35;35.40;26.80
38020;DHT22;23829;51.350;17.286;2023-06-10T11:56:02;36.00;26.80
38020;DHT22;23829;51.350;17.286;2023-06-10T11:58:28;35.60;27.30
38020;DHT22;23829;51.350;17.286;2023-06-10T12:00:56;35.10;28.10
38020;DHT22;23829;51.350;17.286;2023-06-10T12:03:25;35.40;28.10
38020;DHT22;23829;51.350;17.286;2023-06-10T12:06:01;35.20;27.40
38020;DHT22;23829;51.350;17.286;2023-06-10T12:08:28;35.30;27.90
38020;DHT22;23829;51.350;17.286;2023-06-10T12:10:55;35.30;27.60
38020;DHT22;23829;51.350;17.286;2023-06-10T12:13:23;35.10;27.30
38020;DHT22;23829;51.350;17.286;2023-06-10T12:15:53;35.20;26.90
38020;DHT22;23829;51.350;17.286;2023-06-10T12:18:23;35.10;26.40
38020;DHT22;23829;51.350;17.286;2023-06-10T12:20:50;35.30;26.30
38020;DHT22;23829;51.350;17.286;2023-06-10T12:23:19;35.00;26.70
38020;DHT22;23829;51.350;17.286;2023-06-10T12:25:50;35.10;26.60
38020;DHT22;23829;51.350;17.286;2023-06-10T12:28:26;34.80;25.90
38020;DHT22;23829;51.350;17.286;2023-06-10T12:31:08;35.30;26.40
38020;DHT22;23829;51.350;17.286;2023-06-10T12:33:35;35.10;26.90
38020;DHT22;23829;51.350;17.286;2023-06-10T12:36:01;35.60;25.20
38020;DHT22;23829;51.350;17.286;2023-06-10T12:38:28;35.60;25.50
38020;DHT22;23829;51.350;17.286;2023-06-10T12:41:01;35.60;26.10
38020;DHT22;23829;51.350;17.286;2023-06-10T12:43:28;35.70;25.30
38020;DHT22;23829;51.350;17.286;2023-06-10T12:46:09;35.20;25.10
38020;DHT22;23829;51.350;17.286;2023-06-10T12:48:35;35.40;25.20
38020;DHT22;23829;51.350;17.286;2023-06-10T12:51:02;35.40;25.10
38020;DHT22;23829;51.350;17.286;2023-06-10T12:53:29;35.50;25.10
38020;DHT22;23829;51.350;17.286;2023-06-10T12:55:55;35.60;24.30
38020;DHT22;23829;51.350;17.286;2023-06-10T12:58:22;35.60;24.60
38020;DHT22;23829;51.350;17.286;2023-06-10T13:00:49;35.70;25.10
38020;DHT22;23829;51.350;17.286;2023-06-10T13:03:18;35.80;24.30
38020;DHT22;23829;51.350;17.286;2023-06-10T13:05:45;35.80;23.60
38020;DHT22;23829;51.350;17.286;2023-06-10T13:08:12;35.90;24.00
38020;DHT22;23829;51.350;17.286;2023-06-10T13:10:38;35.50;23.70
38020;DHT22;23829;51.350;17.286;2023-06-10T13:13:05;35.10;24.00
38020;DHT22;23829;51.350;17.286;2023-06-10T13:15:33;35.30;24.60
38020;DHT22;23829;51.350;17.286;2023-06-10T13:18:03;35.00;24.90
38020;DHT22;23829;51.350;17.286;2023-06-10T13:20:30;35.50;24.40
38020;DHT22;23829;51.350;17.286;2023-06-10T13:22:57;35.50;24.10
38020;DHT22;23829;51.350;17.286;2023-06-10T13:25:23;35.60;24.50
38020;DHT22;23829;51.350;17.286;2023-06-10T13:27:50;35.70;24.40
38020;DHT22;23829;51.350;17.286;2023-06-10T13:30:16;35.70;23.90
38020;DHT22;23829;51.350;17.286;2023-06-10T13:32:43;35.70;24.00
38020;DHT22;23829;51.350;17.286;2023-06-10T13:35:10;35.40;24.30
38020;DHT22;23829;51.350;17.286;2023-06-10T13:37:36;35.80;22.90
38020;DHT22;23829;51.350;17.286;2023-06-10T13:40:03;35.70;23.00
38020;DHT22;23829;51.350;17.286;2023-06-10T13:42:30;35.40;23.40
38020;DHT22;23829;51.350;17.286;2023-06-10T13:44:58;36.00;23.30
38020;DHT22;23829;51.350;17.286;2023-06-10T13:47:24;36.00;23.10
38020;DHT22;23829;51.350;17.286;2023-06-10T13:49:51;35.70;23.30
38020;DHT22;23829;51.350;17.286;2023-06-10T13:52:18;35.80;22.90
38020;DHT22;23829;51.350;17.286;2023-06-10T13:54:44;36.20;23.10
38020;DHT22;23829;51.350;17.286;2023-06-10T13:57:11;36.20;23.50
38020;DHT22;23829;51.350;17.286;2023-06-10T13:59:37;36.60;23.90
38020;DHT22;23829;51.350;17.286;2023-06-10T14:02:04;36.50;23.10
38020;DHT22;23829;51.350;17.286;2023-06-10T14:04:31;36.20;23.70
38020;DHT22;23829;51.350;17.286;2023-06-10T14:06:57;36.30;22.90
38020;DHT22;23829;51.350;17.286;2023-06-10T14:09:24;36.20;22.90
38020;DHT22;23829;51.350;17.286;2023-06-10T14:11:50;36.10;23.20
38020;DHT22;23829;51.350;17.286;2023-06-10T14:14:17;36.00;22.80
38020;DHT22;23829;51.350;17.286;2023-06-10T14:16:43;36.20;23.40
38020;DHT22;23829;51.350;17.286;2023-06-10T14:19:10;36.50;23.30
38020;DHT22;23829;51.350;17.286;2023-06-10T14:21:36;36.10;23.40
38020;DHT22;23829;51.350;17.286;2023-06-10T14:24:03;36.30;23.90
38020;DHT22;23829;51.350;17.286;2023-06-10T14:26:29;36.40;23.30
38020;DHT22;23829;51.350;17.286;2023-06-10T14:28:57;36.00;23.70
38020;DHT22;23829;51.350;17.286;2023-06-10T14:31:23;36.20;23.60
38020;DHT22;23829;51.350;17.286;2023-06-10T14:33:50;36.00;23.50
38020;DHT22;23829;51.350;17.286;2023-06-10T14:36:17;36.10;23.40
38020;DHT22;23829;51.350;17.286;2023-06-10T14:38:44;36.00;23.70
38020;DHT22;23829;51.350;17.286;2023-06-10T14:41:13;35.70;23.60
38020;DHT22;23829;51.350;17.286;2023-06-10T14:43:40;35.70;23.50
38020;DHT22;23829;51.350;17.286;2023-06-10T14:46:06;35.40;23.90
38020;DHT22;23829;51.350;17.286;2023-06-10T14:48:33;35.40;24.10
38020;DHT22;23829;51.350;17.286;2023-06-10T14:50:59;35.60;23.00
38020;DHT22;23829;51.350;17.286;2023-06-10T14:53:26;35.30;22.80
38020;DHT22;23829;51.350;17.286;2023-06-10T14:55:52;35.40;22.80
38020;DHT22;23829;51.350;17.286;2023-06-10T14:58:19;35.70;22.40
38020;DHT22;23829;51.350;17.286;2023-06-10T15:00:45;35.80;22.00
38020;DHT22;23829;51.350;17.286;2023-06-10T15:03:12;35.70;21.60
38020;DHT22;23829;51.350;17.286;2023-06-10T15:05:38;35.40;22.10
38020;DHT22;23829;51.350;17.286;2023-06-10T15:08:05;35.20;22.20
38020;DHT22;23829;51.350;17.286;2023-06-10T15:10:31;35.40;21.10
38020;DHT22;23829;51.350;17.286;2023-06-10T15:12:57;35.00;21.60
38020;DHT22;23829;51.350;17.286;2023-06-10T15:15:25;35.10;21.70
38020;DHT22;23829;51.350;17.286;2023-06-10T15:17:54;35.50;21.10
38020;DHT22;23829;51.350;17.286;2023-06-10T15:20:21;35.30;21.20
38020;DHT22;23829;51.350;17.286;2023-06-10T15:22:48;35.30;21.70
38020;DHT22;23829;51.350;17.286;2023-06-10T15:25:14;35.20;22.30
38020;DHT22;23829;51.350;17.286;2023-06-10T15:27:41;35.20;22.70
38020;DHT22;23829;51.350;17.286;2023-06-10T15:30:08;35.30;22.50